Date,TemperatureHighF,TemperatureAvgF,TemperatureLowF,DewpointHighF,DewpointAvgF,DewpointLowF,HumidityHigh,HumidityAvg,HumidityLow,PressureMaxIn,PressureMinIn,WindSpeedMaxMPH,WindSpeedAvgMPH,GustSpeedMaxMPH,PrecipitationSumIn
2013-2-1,55.8,47.9,44.1,45.2,43.2,40.1,97,85,60,30.26,30.16,14,6,16,0.00
2013-2-2,60.1,46.2,36.7,40.8,38.1,33.5,94,76,42,30.20,30.14,12,5,14,0.00
2013-2-3,46.9,43.1,39.0,42.2,40.1,37.3,96,89,81,30.23,30.12,8,3,8,0.00
2013-2-4,56.7,47.9,43.5,42.6,40.4,34.3,91,77,48,30.13,29.82,11,3,12,0.00
2013-2-5,53.6,47.8,45.1,44.5,40.8,39.0,83,77,63,29.94,29.80,24,8,24,0.19
2013-2-6,51.8,47.7,43.9,41.1,39.1,36.6,82,73,58,29.99,29.73,17,9,21,0.05
2013-2-7,54.3,44.1,38.8,38.1,35.5,29.0,90,74,40,30.04,29.80,12,5,19,0.07
2013-2-8,52.3,40.4,34.3,36.0,32.2,29.0,88,74,49,30.18,30.04,10,4,15,0.00
2013-2-9,44.8,41.5,36.7,40.8,37.2,32.0,89,85,76,30.19,30.14,99,4,99,169.10
2013-2-10,50.5,44.2,41.7,40.7,36.4,31.9,90,75,55,30.25,30.19,12,5,12,0.00
2013-2-11,44.6,44.3,43.0,34.4,33.8,32.6,69,67,66,30.28,30.21,8,3,8,0.00
2013-2-12,44.6,44.6,44.6,34.1,34.1,34.1,67,67,67,30.36,30.27,2,2,2,0.00
2013-2-13,44.6,44.6,44.6,34.1,34.1,34.1,67,67,67,30.40,30.30,2,2,2,0.00
2013-2-14,49.3,45.2,40.1,41.0,38.7,34.1,91,79,67,30.46,30.39,8,4,9,0.00
2013-2-15,67.3,51.1,43.2,42.5,40.9,40.3,93,73,41,30.40,30.08,9,5,9,0.00
2013-2-16,64.9,57.8,47.7,46.6,40.0,37.6,84,54,43,30.17,30.09,13,6,17,0.05
2013-2-17,48.2,42.9,42.3,37.6,34.8,34.5,74,73,67,30.19,29.99,8,1,8,0.00
2013-2-18,44.6,42.4,42.3,34.5,34.5,33.2,74,74,65,29.99,29.62,6,1,8,0.00
2013-2-19,55.4,45.3,39.6,37.4,34.5,25.7,87,68,34,29.88,29.59,15,6,17,96.74
2013-2-20,50.0,42.6,38.3,39.0,36.0,33.6,87,78,57,29.98,29.88,11,4,16,96.84
2013-2-21,45.5,42.8,39.7,38.7,37.5,35.6,88,82,73,30.07,29.96,17,7,21,96.91
2013-2-22,46.8,43.8,38.1,42.5,38.5,32.7,87,82,64,30.06,29.75,23,10,32,97.42
2013-2-23,49.3,42.0,37.8,37.4,33.9,30.8,87,74,52,30.33,29.95,18,6,20,0.01
2013-2-24,55.2,45.6,39.0,35.6,32.0,23.9,83,62,32,30.32,29.94,19,7,22,0.00
2013-2-25,46.6,44.2,41.5,39.6,36.5,32.7,86,75,59,30.27,29.89,22,7,28,0.13
2013-2-26,46.6,44.9,44.8,35.8,35.8,34.4,71,71,63,30.28,30.13,8,5,8,0.13
2013-2-27,48.0,46.0,44.4,45.6,37.2,34.6,95,72,64,30.20,30.12,11,8,14,0.08
2013-2-28,56.7,52.6,46.2,51.8,48.7,45.0,98,87,81,30.32,30.08,17,8,21,0.18